Texas General Land Office
 Texas General Land Office
 George P. Bush, Commissioner

 Oil Spill Prevention
 & Response

Texas Automated Buoy System
Real Time Ocean Observations
Supporting Oil Spill Prevention and
Response since 1995
Geochemical and Environmental Research Group

TABS Buoy F -- Texas Automated Buoy System

TABS Buoy F Conditions at 06/26/2017 14:30 UTC (06/26/2017 09:30 CDT)
28° 50.5500'N   94° 14.4960'W
AA3900 DCS - sensor depth 2m
Water Depth: 79 feet (24 meters)
Speed: 29.16 cm/s (0.57 kts) Direction: 136 °T (SE) Water Temp: 29°C (84 °F)
System Voltage: 13.2 V Signal Strength: -1.9 dB Ping Count: 133
  


IMPORTANT: Notice to Mariners


Today's Velocity Data (download)

   Date   |  Time  |   East |   North|   Speed|  Dir | WaterT |
          |  (UTC) |  (cm/s)|  (cm/s)|  (cm/s)| (°T) |  (°C)  |
==========+========+========+========+========+======+========+
06/26/2017 05:00:00   -16.65     1.37    16.71  274.7   29.2
06/26/2017 05:30:00   -15.49     5.84    16.55  290.7   29.2
06/26/2017 06:00:00   -13.56     7.71    15.60  299.6   29.2
06/26/2017 06:30:00   -12.28    12.24    17.34  314.9   29.1
06/26/2017 07:00:00   -10.67    14.92    18.34  324.4   29.1
06/26/2017 07:30:00    -6.73    17.38    18.64  338.8   29.1
06/26/2017 08:00:00    -3.76    18.89    19.26  348.7   29.1
06/26/2017 08:30:00    -0.24    21.31    21.31  359.4   29.0
06/26/2017 09:00:00     4.29    19.75    20.21   12.3   28.9
06/26/2017 09:30:00     8.09    18.24    19.95   23.9   28.8
06/26/2017 10:00:00    12.43    11.84    17.17   46.4   28.6
06/26/2017 10:30:00    14.50     5.84    15.63   68.1   28.6
06/26/2017 11:00:00    15.22    -0.34    15.22   91.3   28.5
06/26/2017 11:30:00    14.09    -4.24    14.71  106.7   28.4
06/26/2017 12:00:00    14.73   -10.55    18.12  125.6   28.4
06/26/2017 12:30:00    14.40   -16.77    22.10  139.3   28.6
06/26/2017 13:00:00    17.20   -17.99    24.89  136.3   28.8
06/26/2017 13:30:00    17.71   -19.21    26.13  137.3   28.8
06/26/2017 14:00:00    21.04   -19.66    28.80  133.1   28.9
06/26/2017 14:30:00    20.15   -21.08    29.16  136.3   28.9



       
 

Today's Temperature - Salinity Data     (Download)


   Date   |  Time  |   Temp |   Cond |Salinity| Density|SoundVel|
          |  (UTC) |   (°C) | (ms/cm)|        | kg/m^3 |  (m/s) |
==========+========+========+========+========+========+========+
06/26/2017 05:00:00    29.15     4.87    29.06     0.00     0.00
06/26/2017 05:30:00    29.11     4.87    29.09     0.00     0.00
06/26/2017 06:00:00    29.09     4.87    29.11     0.00     0.00
06/26/2017 06:30:00    29.07     4.88    29.16     0.00     0.00
06/26/2017 07:00:00    29.09     4.88    29.21     0.00     0.00
06/26/2017 07:30:00    29.05     4.89    29.26     0.00     0.00
06/26/2017 08:00:00    28.96     4.89    29.34     0.00     0.00
06/26/2017 08:30:00    28.88     4.90    29.44     0.00     0.00
06/26/2017 09:00:00    28.71     4.91    29.60     0.00     0.00
06/26/2017 09:30:00    28.64     4.91    29.66     0.00     0.00
06/26/2017 10:00:00    28.55     4.92    29.79     0.00     0.00
06/26/2017 10:30:00    28.49     4.94    29.93     0.00     0.00
06/26/2017 11:00:00    28.45     4.94    29.99     0.00     0.00
06/26/2017 11:30:00    28.41     4.94    30.02     0.00     0.00
06/26/2017 12:00:00    28.42     4.95    30.03     0.00     0.00
06/26/2017 12:30:00    28.68     4.93    29.74     0.00     0.00
06/26/2017 13:00:00    28.78     4.90    29.51     0.00     0.00
06/26/2017 13:30:00    28.81     4.88    29.32     0.00     0.00
06/26/2017 14:00:00    28.84     4.87    29.23     0.00     0.00
06/26/2017 14:30:00    28.84     4.85    29.14     0.00     0.00